Time;durP1;ratioP1;P1;durP2;ratioP2;P2;SDS_P1;SDS_P2;PMS_P1;PMS_P2;Temp;Humidity;BMP_temperature;BMP_pressure;BME280_temperature;BME280_humidity;BME280_pressure;Samples;Min_cycle;Max_cycle;Signal;HPM_P1;HPM_P2
2023/05/28 00:01:38;;;;;;;13.98;4.05;;;;;;;13.43;64.42;101888.69;5083092;28;20424;-73
2023/05/28 00:04:24;;;;;;;13.30;4.43;;;;;;;13.48;64.33;101888.59;5080787;28;20087;-73
2023/05/28 00:07:10;;;;;;;13.13;4.72;;;;;;;13.47;64.28;101889.50;5068390;28;20053;-73
2023/05/28 00:09:59;;;;;;;9.23;4.50;;;;;;;13.43;64.50;101885.19;5081009;28;20504;-73
2023/05/28 00:12:44;;;;;;;9.77;4.38;;;;;;;13.38;64.27;101881.75;5083986;28;20052;-73
2023/05/28 00:15:30;;;;;;;9.50;4.05;;;;;;;13.36;64.76;101881.78;5080312;28;20057;-73
2023/05/28 00:18:15;;;;;;;11.77;4.45;;;;;;;13.35;64.97;101878.28;5073057;28;20481;-73
2023/05/28 00:21:01;;;;;;;10.43;4.70;;;;;;;13.30;64.96;101874.00;5086534;28;20103;-73
2023/05/28 00:23:46;;;;;;;11.98;4.30;;;;;;;13.29;65.19;101865.19;5086605;28;20107;-73
2023/05/28 00:26:32;;;;;;;7.53;4.20;;;;;;;13.28;65.19;101867.88;5087040;28;20139;-73
2023/05/28 00:29:17;;;;;;;12.93;4.57;;;;;;;13.24;65.15;101875.03;5064421;28;20065;-73
2023/05/28 00:32:05;;;;;;;10.38;4.90;;;;;;;13.15;65.18;101870.81;5065140;28;20058;-73
2023/05/28 00:34:51;;;;;;;11.68;4.60;;;;;;;13.06;65.51;101871.06;5083012;28;20048;-73
2023/05/28 00:37:36;;;;;;;10.65;4.57;;;;;;;13.00;65.98;101863.28;5085142;28;20057;-73
2023/05/28 00:40:21;;;;;;;10.63;4.70;;;;;;;12.95;65.86;101865.13;5084489;28;20131;-73
2023/05/28 00:43:07;;;;;;;10.65;4.50;;;;;;;12.86;66.01;101869.75;5079003;28;20069;-73
2023/05/28 00:45:57;;;;;;;9.98;4.38;;;;;;;12.80;66.31;101875.19;5084188;28;20056;-73
2023/05/28 00:48:42;;;;;;;10.77;5.18;;;;;;;12.73;66.53;101878.88;5090138;28;20040;-73
2023/05/28 00:51:29;;;;;;;11.90;4.55;;;;;;;12.68;66.40;101870.19;5114458;27;20036;-73
2023/05/28 00:54:16;;;;;;;11.40;4.47;;;;;;;12.63;66.88;101886.16;5098998;28;20051;-74
2023/05/28 00:57:02;;;;;;;10.38;5.28;;;;;;;12.57;66.86;101884.53;5085151;28;20053;-73
2023/05/28 00:59:48;;;;;;;10.52;5.30;;;;;;;12.53;67.26;101876.69;5085733;28;20056;-74
2023/05/28 01:02:34;;;;;;;11.88;5.00;;;;;;;12.50;67.92;101875.00;5085663;28;20056;-75
2023/05/28 01:05:19;;;;;;;9.65;4.90;;;;;;;12.50;68.24;101877.63;5086353;28;20060;-73
2023/05/28 01:08:07;;;;;;;9.38;4.97;;;;;;;12.47;68.48;101877.69;5080221;28;20784;-75
2023/05/28 01:10:52;;;;;;;7.43;4.28;;;;;;;12.46;68.25;101875.09;5085618;28;21039;-75
2023/05/28 01:13:40;;;;;;;9.85;4.68;;;;;;;12.47;68.37;101876.78;5070460;28;20057;-76
2023/05/28 01:16:27;;;;;;;12.10;4.68;;;;;;;12.47;68.27;101877.69;5069041;28;20064;-76
2023/05/28 01:19:21;;;;;;;10.25;4.75;;;;;;;12.52;68.62;101882.88;5080393;28;20063;-75
2023/05/28 01:22:08;;;;;;;11.63;5.60;;;;;;;12.55;68.80;101874.88;5081347;28;20634;-74
2023/05/28 01:24:54;;;;;;;12.40;5.60;;;;;;;12.54;69.06;101879.28;5072564;28;20128;-74
2023/05/28 01:27:40;;;;;;;13.23;6.47;;;;;;;12.57;69.33;101878.34;5085502;28;20056;-75
2023/05/28 01:30:26;;;;;;;14.95;6.35;;;;;;;12.58;69.79;101878.31;5085632;28;20103;-76
2023/05/28 01:33:12;;;;;;;10.90;5.68;;;;;;;12.57;69.85;101876.59;5069163;28;20056;-75
2023/05/28 01:36:03;;;;;;;10.13;6.15;;;;;;;12.57;70.00;101878.34;5081393;28;20491;-76
2023/05/28 01:38:52;;;;;;;14.25;6.88;;;;;;;12.56;70.21;101880.13;5086261;28;20783;-76
2023/05/28 01:41:39;;;;;;;11.65;6.00;;;;;;;12.53;70.37;101890.75;5086288;28;20087;-77
2023/05/28 01:44:25;;;;;;;12.43;6.40;;;;;;;12.49;70.36;101880.28;5059280;28;20056;-76
2023/05/28 01:47:13;;;;;;;12.48;6.40;;;;;;;12.46;70.42;101885.66;5061919;28;20502;-77
2023/05/28 01:50:00;;;;;;;11.93;6.30;;;;;;;12.41;70.54;101889.28;5069564;28;20052;-77
2023/05/28 01:52:46;;;;;;;15.27;6.53;;;;;;;12.39;70.70;101887.56;5086215;28;20052;-77
2023/05/28 01:55:32;;;;;;;10.68;6.05;;;;;;;12.36;70.75;101887.63;5086891;28;20049;-77
2023/05/28 01:58:18;;;;;;;13.45;6.43;;;;;;;12.32;70.94;101897.41;5085907;28;20059;-77
2023/05/28 02:01:19;;;;;;;12.65;6.03;;;;;;;12.27;71.04;101880.75;5069831;28;20056;-77
2023/05/28 02:04:05;;;;;;;11.77;5.93;;;;;;;12.23;71.45;101893.16;5066285;28;20065;-77
2023/05/28 02:06:51;;;;;;;14.25;6.20;;;;;;;12.17;71.66;101892.41;5081926;28;20053;-76
2023/05/28 02:09:37;;;;;;;12.20;6.80;;;;;;;12.09;71.89;101885.50;5070642;28;20049;-78
2023/05/28 02:12:22;;;;;;;14.27;6.70;;;;;;;12.08;72.21;101885.56;5061483;28;20082;-77
2023/05/28 02:15:11;;;;;;;13.23;6.35;;;;;;;12.05;72.51;101875.91;5080900;28;20056;-76
2023/05/28 02:17:56;;;;;;;10.68;6.00;;;;;;;12.05;72.58;101867.09;5080224;28;20052;-77
2023/05/28 02:20:42;;;;;;;17.23;6.88;;;;;;;12.01;72.83;101870.69;5067954;28;20057;-76
2023/05/28 02:23:28;;;;;;;12.63;6.47;;;;;;;11.95;72.91;101869.91;5081073;28;20096;-76
2023/05/28 02:26:13;;;;;;;14.43;6.70;;;;;;;11.92;73.10;101866.44;5067547;28;20057;-77
2023/05/28 02:28:59;;;;;;;12.00;5.90;;;;;;;11.90;73.54;101860.31;5082437;28;20052;-77
2023/05/28 02:31:44;;;;;;;13.80;6.18;;;;;;;11.92;73.65;101855.88;5084061;28;20060;-76
2023/05/28 02:34:33;;;;;;;12.93;6.57;;;;;;;11.93;73.52;101857.63;5069576;28;20065;-76
2023/05/28 02:37:23;;;;;;;16.08;6.88;;;;;;;11.86;73.58;101856.88;5077655;28;20875;-76
2023/05/28 02:40:11;;;;;;;10.65;6.60;;;;;;;11.76;73.92;101852.66;5088058;28;20100;-74
2023/05/28 02:42:56;;;;;;;13.57;6.80;;;;;;;11.69;74.14;101853.69;5067077;28;20057;-74
2023/05/28 02:45:42;;;;;;;11.50;6.60;;;;;;;11.63;74.51;101852.88;5062988;28;20095;-74
2023/05/28 02:48:27;;;;;;;11.95;6.63;;;;;;;11.57;74.77;101852.13;5088249;28;20064;-74
2023/05/28 02:51:13;;;;;;;14.95;6.55;;;;;;;11.50;75.35;101854.00;5061005;28;20048;-74
2023/05/28 02:53:58;;;;;;;17.50;7.15;;;;;;;11.42;75.59;101856.81;5071119;28;20048;-76
2023/05/28 02:56:43;;;;;;;13.20;6.78;;;;;;;11.33;76.04;101865.75;5083972;28;20052;-75
2023/05/28 02:59:29;;;;;;;12.73;7.40;;;;;;;11.27;76.11;101862.31;5075963;28;20057;-75
2023/05/28 03:02:15;;;;;;;12.05;7.05;;;;;;;11.24;76.84;101863.25;5071967;28;20053;-77
2023/05/28 03:05:02;;;;;;;12.15;7.25;;;;;;;11.24;77.09;101867.69;5067433;28;20056;-74
2023/05/28 03:07:47;;;;;;;14.25;8.15;;;;;;;11.19;77.14;101865.97;5087055;28;20052;-75
2023/05/28 03:10:33;;;;;;;13.52;7.15;;;;;;;11.18;77.62;101874.78;5084855;28;20045;-74
2023/05/28 03:13:18;;;;;;;14.52;7.45;;;;;;;11.18;77.72;101872.16;5059533;28;20110;-74
2023/05/28 03:16:04;;;;;;;16.77;7.82;;;;;;;11.16;77.88;101873.94;5082617;28;20166;-74
2023/05/28 03:18:51;;;;;;;19.42;7.43;;;;;;;11.13;78.13;101881.03;5058593;28;20567;-74
2023/05/28 03:21:37;;;;;;;14.23;7.55;;;;;;;11.11;79.00;101873.16;5082885;28;20062;-74
2023/05/28 03:24:22;;;;;;;15.07;7.03;;;;;;;11.07;79.51;101876.72;5073294;28;20178;-74
2023/05/28 03:27:10;;;;;;;15.00;7.50;;;;;;;11.05;79.94;101881.16;5057582;28;20139;-74
2023/05/28 03:29:58;;;;;;;16.95;7.90;;;;;;;11.03;80.34;101889.09;5064018;28;20068;-75
2023/05/28 03:32:58;;;;;;;16.33;7.65;;;;;;;11.00;80.65;101886.50;5066937;28;20057;-75
2023/05/28 03:35:43;;;;;;;17.48;8.02;;;;;;;11.04;81.15;101868.84;5081006;28;20139;-75
2023/05/28 03:38:29;;;;;;;18.30;7.90;;;;;;;11.06;81.36;101867.06;5082283;28;20105;-75
2023/05/28 03:41:14;;;;;;;17.33;8.40;;;;;;;11.09;81.35;101868.81;5085711;28;20143;-74
2023/05/28 03:44:03;;;;;;;18.38;7.78;;;;;;;11.09;80.93;101871.44;5063679;28;20747;-72
2023/05/28 03:46:49;;;;;;;15.10;7.45;;;;;;;11.11;80.89;101867.88;5069231;28;20131;-72
2023/05/28 03:49:35;;;;;;;15.38;7.55;;;;;;;11.18;80.84;101861.59;5073799;28;20532;-72
2023/05/28 03:52:20;;;;;;;14.35;7.72;;;;;;;11.28;80.17;101870.25;5087372;28;20083;-73
2023/05/28 03:55:09;;;;;;;12.73;7.43;;;;;;;11.27;79.98;101867.59;5072890;28;20552;-73
2023/05/28 03:57:56;;;;;;;15.35;7.70;;;;;;;11.25;79.86;101870.28;5072079;28;20064;-74
2023/05/28 04:00:41;;;;;;;16.08;7.47;;;;;;;11.29;79.95;101885.16;5071595;28;20107;-77
2023/05/28 04:03:27;;;;;;;20.30;8.13;;;;;;;11.34;79.81;101883.31;5068688;28;20065;-77
2023/05/28 04:06:12;;;;;;;17.58;7.97;;;;;;;11.30;80.12;101884.25;5069622;28;20052;-76
2023/05/28 04:08:58;;;;;;;13.95;8.00;;;;;;;11.36;80.34;101874.50;5088598;28;20436;-77
2023/05/28 04:11:43;;;;;;;15.80;7.50;;;;;;;11.38;80.73;101870.94;5076513;28;20147;-77
2023/05/28 04:14:31;;;;;;;17.13;7.75;;;;;;;11.54;79.78;101868.03;5064246;28;20795;-77
2023/05/28 04:17:18;;;;;;;17.25;7.32;;;;;;;11.59;79.67;101866.19;5069612;28;20781;-75
2023/05/28 04:20:06;;;;;;;14.85;7.10;;;;;;;11.70;79.11;101873.94;5079648;28;20045;-76
2023/05/28 04:22:51;;;;;;;14.15;7.40;;;;;;;11.69;78.91;101877.47;5086397;28;20064;-74
2023/05/28 04:25:36;;;;;;;16.75;7.38;;;;;;;11.71;78.54;101873.00;5071562;28;20135;-74
2023/05/28 04:28:27;;;;;;;17.10;7.68;;;;;;;11.76;78.54;101882.56;5082919;28;20136;-74
2023/05/28 04:31:13;;;;;;;14.15;7.93;;;;;;;11.88;78.41;101892.06;5074279;28;20888;-74
2023/05/28 04:33:58;;;;;;;16.58;7.15;;;;;;;11.95;78.14;101892.81;5069289;28;20132;-73
2023/05/28 04:36:44;;;;;;;16.23;7.22;;;;;;;12.03;78.33;101892.69;5081651;28;20052;-72
2023/05/28 04:39:30;;;;;;;15.38;6.82;;;;;;;12.13;77.57;101888.97;5063019;28;20061;-71
2023/05/28 04:42:18;;;;;;;15.30;6.95;;;;;;;12.25;77.19;101894.00;5077730;28;20063;-72
2023/05/28 04:45:05;;;;;;;15.00;7.28;;;;;;;12.65;76.30;101894.94;5068392;28;20528;-74
2023/05/28 04:47:51;;;;;;;15.27;7.15;;;;;;;14.24;71.22;101881.22;5065901;28;20446;-74
2023/05/28 04:50:37;;;;;;;14.88;6.88;;;;;;;14.60;68.85;101889.84;5080170;28;20893;-74
2023/05/28 04:53:22;;;;;;;14.57;6.70;;;;;;;14.29;69.37;101887.25;5062979;28;20505;-76
2023/05/28 04:56:08;;;;;;;17.00;6.85;;;;;;;13.91;70.09;101890.06;5069089;28;20052;-76
2023/05/28 04:58:54;;;;;;;15.35;6.90;;;;;;;13.77;71.41;101890.47;5080088;28;20048;-75
2023/05/28 05:01:41;;;;;;;16.30;6.82;;;;;;;14.05;70.55;101891.47;5062862;28;20144;-75
2023/05/28 05:04:27;;;;;;;17.08;6.60;;;;;;;13.99;70.29;101895.19;5078598;28;20060;-77
2023/05/28 05:07:14;;;;;;;14.00;6.43;;;;;;;13.85;70.54;101897.31;5065829;28;20633;-76
2023/05/28 05:10:00;;;;;;;13.57;6.50;;;;;;;14.05;70.31;101897.63;5070055;28;20064;-76
2023/05/28 05:12:45;;;;;;;15.20;7.07;;;;;;;14.33;69.15;101896.88;5083791;28;20056;-76
2023/05/28 05:15:32;;;;;;;13.45;6.90;;;;;;;14.33;69.11;101896.88;5089533;28;20052;-76
2023/05/28 05:18:18;;;;;;;14.35;6.88;;;;;;;14.70;68.51;101900.25;5068007;28;20053;-75
2023/05/28 05:21:04;;;;;;;17.02;6.78;;;;;;;15.38;66.03;101900.72;5077041;28;20053;-76
2023/05/28 05:23:49;;;;;;;13.38;6.30;;;;;;;15.07;66.69;101902.56;5080091;28;20057;-75
2023/05/28 05:26:34;;;;;;;15.50;6.38;;;;;;;16.35;64.61;101904.38;5064170;28;20572;-74
2023/05/28 05:29:20;;;;;;;14.30;6.03;;;;;;;19.01;58.22;101894.81;5081994;28;20524;-75
2023/05/28 05:32:06;;;;;;;11.88;6.15;;;;;;;21.00;52.46;101897.72;5061019;28;20099;-76
2023/05/28 05:34:52;;;;;;;12.80;5.50;;;;;;;22.51;47.71;101889.53;5076078;28;20056;-76
2023/05/28 05:37:44;;;;;;;11.48;5.65;;;;;;;23.53;44.91;101886.38;5107894;28;20029;-75
2023/05/28 05:40:50;;;;;;;12.60;5.35;;;;;;;24.48;41.67;101890.53;5107936;28;20056;-73
2023/05/28 05:43:51;;;;;;;10.82;4.40;;;;;;;25.16;39.72;101895.47;5069447;28;20064;-74
2023/05/28 05:46:36;;;;;;;12.82;4.85;;;;;;;25.62;38.93;101901.88;5080667;28;20044;-75
2023/05/28 05:49:22;;;;;;;8.82;4.65;;;;;;;25.87;37.00;101903.50;5090777;28;20044;-75
2023/05/28 05:52:07;;;;;;;11.50;5.10;;;;;;;26.14;37.47;101902.31;5069133;28;20053;-76
2023/05/28 05:54:55;;;;;;;11.82;5.28;;;;;;;26.27;36.49;101904.88;5069666;28;20624;-78
2023/05/28 05:57:41;;;;;;;11.82;5.88;;;;;;;26.64;36.28;101907.31;5084292;28;20056;-78
2023/05/28 06:00:27;;;;;;;14.55;5.35;;;;;;;26.87;35.50;101913.53;5079053;28;20055;-79
2023/05/28 06:03:15;;;;;;;12.43;5.60;;;;;;;27.13;34.33;101902.38;5082058;28;20056;-77
2023/05/28 06:06:21;;;;;;;9.65;5.72;;;;;;;27.10;33.93;101903.50;5076275;28;20449;-77
2023/05/28 06:09:23;;;;;;;10.98;5.40;;;;;;;26.39;34.39;101911.16;5070027;28;20056;-76
2023/05/28 06:12:12;;;;;;;12.75;5.53;;;;;;;24.08;38.01;101906.88;5080166;28;20048;-77
2023/05/28 06:15:00;;;;;;;14.07;5.95;;;;;;;21.50;42.93;101912.66;5071515;28;20052;-74
2023/05/28 06:17:45;;;;;;;11.02;5.50;;;;;;;19.93;47.09;101919.63;5083937;28;20554;-76
2023/05/28 06:20:31;;;;;;;10.25;5.55;;;;;;;18.90;50.14;101919.34;5087131;28;20063;-75
2023/05/28 06:23:16;;;;;;;17.33;6.07;;;;;;;18.24;52.37;101915.31;5067019;28;20132;-74
2023/05/28 06:26:03;;;;;;;13.48;5.93;;;;;;;17.87;54.36;101916.06;5064874;28;20045;-74
2023/05/28 06:28:48;;;;;;;13.27;5.68;;;;;;;17.63;54.95;101911.75;5080012;28;20144;-73
2023/05/28 06:31:35;;;;;;;14.60;6.00;;;;;;;17.43;56.04;101909.91;5080253;28;20061;-73
2023/05/28 06:34:22;;;;;;;16.90;6.03;;;;;;;17.27;56.92;101919.50;5070693;28;20064;-75
2023/05/28 06:37:07;;;;;;;15.23;6.15;;;;;;;17.25;57.59;101918.69;5055933;28;20057;-76
2023/05/28 06:39:53;;;;;;;12.68;6.43;;;;;;;17.30;58.23;101924.66;5061097;28;20049;-75
2023/05/28 06:42:38;;;;;;;11.13;6.25;;;;;;;17.39;58.09;101917.16;5057835;28;20057;-72
2023/05/28 06:45:38;;;;;;;13.40;5.70;;;;;;;17.42;58.61;101916.16;5063207;28;20057;-75
2023/05/28 06:48:26;;;;;;;13.63;5.78;;;;;;;17.45;57.32;101917.88;5060221;28;20056;-76
2023/05/28 06:51:11;;;;;;;11.63;5.68;;;;;;;17.44;58.08;101914.31;5055538;28;20053;-74
2023/05/28 06:53:57;;;;;;;10.65;5.95;;;;;;;17.56;58.74;101917.38;5062235;28;20491;-76
2023/05/28 06:56:48;;;;;;;13.45;6.03;;;;;;;17.76;57.56;101922.72;5059812;28;20207;-77
2023/05/28 06:59:54;;;;;;;10.60;4.65;;;;;;;17.93;57.02;101911.31;5065558;28;20057;-76
2023/05/28 07:02:58;;;;;;;16.80;5.20;;;;;;;18.09;55.88;101908.00;5074573;28;20060;-75
2023/05/28 07:06:03;;;;;;;9.50;4.10;;;;;;;18.38;53.98;101909.34;5063303;28;20049;-74
2023/05/28 07:08:49;;;;;;;12.00;4.55;;;;;;;18.55;53.82;101913.00;5079394;28;20092;-75
2023/05/28 07:11:34;;;;;;;10.98;4.30;;;;;;;18.77;54.25;101915.56;5082594;28;20085;-75
2023/05/28 07:14:20;;;;;;;10.60;4.80;;;;;;;19.08;52.37;101920.28;5059951;28;20057;-75
2023/05/28 07:17:05;;;;;;;12.45;3.97;;;;;;;19.25;52.12;101907.88;5054614;28;20125;-74
2023/05/28 07:19:51;;;;;;;9.02;4.03;;;;;;;19.50;51.21;101918.19;5065054;28;20053;-75
2023/05/28 07:22:47;;;;;;;10.88;4.38;;;;;;;19.88;50.36;101927.03;5062309;28;20104;-74
2023/05/28 07:25:33;;;;;;;9.00;3.75;;;;;;;20.15;47.97;101913.97;5055978;28;20053;-75
2023/05/28 07:28:18;;;;;;;8.15;3.70;;;;;;;20.30;48.60;101923.88;5063028;28;20140;-75
2023/05/28 07:31:03;;;;;;;10.45;3.88;;;;;;;20.50;47.84;101923.75;5060878;28;20056;-75
2023/05/28 07:33:50;;;;;;;11.02;3.53;;;;;;;20.57;48.24;101919.75;5061710;28;20057;-75
2023/05/28 07:36:37;;;;;;;11.20;4.30;;;;;;;20.64;48.09;101916.66;5058947;28;20058;-76
2023/05/28 07:39:23;;;;;;;10.57;4.15;;;;;;;20.67;47.74;101926.34;5057104;28;20538;-76
2023/05/28 07:42:10;;;;;;;8.25;3.53;;;;;;;20.69;46.33;101919.09;5062593;28;20053;-73
2023/05/28 07:44:58;;;;;;;10.23;3.83;;;;;;;20.67;46.00;101928.13;5067498;28;20053;-75
2023/05/28 07:47:43;;;;;;;9.05;3.58;;;;;;;20.57;45.55;101925.13;5068771;28;20061;-74
2023/05/28 07:50:45;;;;;;;9.23;3.10;;;;;;;20.44;46.30;101922.25;5059291;28;20053;-76
2023/05/28 07:53:41;;;;;;;9.30;3.47;;;;;;;20.38;46.93;101930.59;5070510;28;20049;-76
2023/05/28 07:56:31;;;;;;;9.27;3.75;;;;;;;20.37;47.02;101928.88;5061615;28;20100;-75
2023/05/28 07:59:18;;;;;;;8.18;3.47;;;;;;;20.41;46.60;101925.94;5078618;28;20065;-73
2023/05/28 08:02:03;;;;;;;7.68;3.22;;;;;;;20.33;46.87;101934.44;5069226;28;20056;-75
2023/05/28 08:04:49;;;;;;;9.07;3.33;;;;;;;20.36;47.30;101928.03;5055479;28;20045;-74
2023/05/28 08:07:35;;;;;;;8.38;3.20;;;;;;;20.45;46.90;101927.53;5061972;28;20501;-73
2023/05/28 08:10:21;;;;;;;9.40;3.10;;;;;;;20.38;46.79;101919.91;5062564;28;20128;-72
2023/05/28 08:13:07;;;;;;;8.90;3.55;;;;;;;20.43;46.71;101918.69;5064902;28;20065;-75
2023/05/28 08:15:53;;;;;;;10.60;4.95;;;;;;;20.38;49.22;101927.94;5060817;28;20159;-75
2023/05/28 08:18:42;;;;;;;10.35;4.25;;;;;;;20.27;50.31;101928.53;5062441;28;20676;-77
2023/05/28 08:21:30;;;;;;;11.98;4.97;;;;;;;20.15;51.70;101920.22;5053282;28;20128;-74
2023/05/28 08:24:20;;;;;;;12.32;4.80;;;;;;;20.07;51.43;101925.13;5077744;28;20099;-75
2023/05/28 08:27:06;;;;;;;14.57;4.90;;;;;;;19.96;51.72;101922.16;5079528;28;20095;-75
2023/05/28 08:29:52;;;;;;;13.10;5.05;;;;;;;19.91;52.31;101927.75;5077219;28;20144;-77
2023/05/28 08:32:37;;;;;;;12.45;5.28;;;;;;;19.82;53.31;101926.38;5071923;28;20053;-74
2023/05/28 08:35:23;;;;;;;12.48;5.72;;;;;;;19.80;53.78;101919.38;5078574;28;20135;-74
2023/05/28 08:38:08;;;;;;;13.10;4.65;;;;;;;19.82;53.81;101915.66;5082346;28;20151;-76
2023/05/28 08:40:59;;;;;;;11.60;4.97;;;;;;;19.86;53.98;101911.06;5072701;28;20132;-76
2023/05/28 08:43:46;;;;;;;10.27;4.97;;;;;;;19.98;53.70;101909.56;5072898;28;20060;-75
2023/05/28 08:46:32;;;;;;;12.55;4.53;;;;;;;20.15;53.76;101906.81;5072598;28;20044;-75
2023/05/28 08:49:41;;;;;;;12.37;4.80;;;;;;;20.52;51.62;101908.41;5074859;28;20513;-75
2023/05/28 08:52:32;;;;;;;9.60;4.00;;;;;;;20.77;50.69;101911.50;5064508;28;20738;-76
2023/05/28 08:55:18;;;;;;;9.90;3.80;;;;;;;21.04;48.24;101907.31;5064400;28;20049;-77
2023/05/28 08:58:11;;;;;;;7.75;3.00;;;;;;;21.33;48.05;101921.69;5077720;28;20049;-76
2023/05/28 09:00:57;;;;;;;5.95;3.00;;;;;;;21.68;45.08;101909.84;5085252;28;20048;-75
2023/05/28 09:03:44;;;;;;;9.50;3.17;;;;;;;21.86;43.63;101903.38;5075144;28;20064;-73
2023/05/28 09:06:39;;;;;;;9.60;3.17;;;;;;;21.86;43.36;101899.81;5055997;28;20052;-75
2023/05/28 09:09:32;;;;;;;7.35;3.30;;;;;;;21.94;43.18;101896.66;5081294;28;20052;-75
2023/05/28 09:12:22;;;;;;;7.05;2.70;;;;;;;21.99;41.18;101891.84;5087793;28;20432;-78
2023/05/28 09:15:21;;;;;;;7.75;3.20;;;;;;;21.86;41.77;101897.13;5071415;28;20048;-79
2023/05/28 09:18:07;;;;;;;8.30;3.17;;;;;;;21.78;42.98;101894.91;5071739;28;20060;-76
2023/05/28 09:21:00;;;;;;;8.13;2.92;;;;;;;21.87;41.90;101888.97;5082008;28;20082;-75
2023/05/28 09:23:53;;;;;;;7.22;2.80;;;;;;;21.94;42.73;101891.28;5066211;28;20056;-76
2023/05/28 09:27:08;;;;;;;9.60;3.15;;;;;;;22.15;41.46;101887.28;5073368;28;20549;-78
2023/05/28 09:30:01;;;;;;;7.93;3.20;;;;;;;22.26;40.30;101897.31;5069273;28;20052;-78
2023/05/28 09:32:54;;;;;;;8.10;2.97;;;;;;;22.19;40.59;101896.00;5080779;28;20952;-75
2023/05/28 09:35:40;;;;;;;10.13;3.28;;;;;;;22.03;39.94;101890.72;5086946;28;20520;-74
2023/05/28 09:38:26;;;;;;;8.65;2.78;;;;;;;22.03;40.51;101896.09;5083184;28;20045;-77
2023/05/28 09:41:23;;;;;;;8.48;2.88;;;;;;;22.17;40.98;101892.53;5080794;28;20049;-79
2023/05/28 09:44:10;;;;;;;7.35;3.17;;;;;;;22.41;41.02;101886.59;5087358;28;20079;-79
2023/05/28 09:46:56;;;;;;;8.65;2.90;;;;;;;22.74;40.50;101886.22;5074668;28;20057;-78
2023/05/28 09:49:46;;;;;;;6.80;2.83;;;;;;;23.07;38.85;101887.66;5086524;28;20056;-77
2023/05/28 09:52:34;;;;;;;8.07;2.88;;;;;;;23.30;38.16;101879.88;5073876;28;20049;-78
2023/05/28 09:55:24;;;;;;;7.63;3.00;;;;;;;23.34;38.36;101870.63;5080435;28;20067;-78
2023/05/28 09:58:11;;;;;;;6.32;2.72;;;;;;;23.32;38.20;101880.63;5084225;28;20048;-78
2023/05/28 10:01:00;;;;;;;8.32;3.05;;;;;;;23.34;38.27;101880.53;5073062;28;20100;-78
2023/05/28 10:03:57;;;;;;;9.18;3.10;;;;;;;23.41;37.30;101882.69;5084602;28;20064;-77
2023/05/28 10:06:45;;;;;;;7.53;2.50;;;;;;;23.52;37.01;101883.78;5079790;28;20052;-78
2023/05/28 10:09:32;;;;;;;6.97;2.67;;;;;;;23.55;35.57;101879.03;5081173;28;20513;-75
2023/05/28 10:12:25;;;;;;;7.40;2.80;;;;;;;23.39;37.03;101876.56;5085078;28;20057;-77
2023/05/28 10:15:11;;;;;;;6.57;3.10;;;;;;;23.36;37.73;101879.47;5082013;28;20143;-77
2023/05/28 10:17:58;;;;;;;7.15;3.20;;;;;;;23.29;38.78;101879.97;5082332;28;20517;-78
2023/05/28 10:20:43;;;;;;;6.65;2.95;;;;;;;23.48;38.01;101884.97;5096306;28;20088;-77
2023/05/28 10:23:29;;;;;;;9.30;3.30;;;;;;;23.55;37.67;101875.50;5102899;28;20059;-77
2023/05/28 10:26:16;;;;;;;8.57;2.90;;;;;;;23.69;37.09;101885.31;5105300;28;20040;-78
2023/05/28 10:29:07;;;;;;;6.97;2.80;;;;;;;23.91;36.58;101879.25;5081735;28;20053;-77
2023/05/28 10:32:00;;;;;;;8.38;3.20;;;;;;;23.97;36.39;101880.69;5082877;28;20045;-76
2023/05/28 10:34:46;;;;;;;9.68;2.90;;;;;;;24.07;36.74;101876.38;5085406;28;20053;-76
2023/05/28 10:37:31;;;;;;;6.43;2.63;;;;;;;24.21;36.01;101877.22;5081144;28;20056;-77
2023/05/28 10:40:23;;;;;;;6.10;2.80;;;;;;;24.23;36.58;101877.97;5084577;28;20190;-77
2023/05/28 10:43:37;;;;;;;7.78;3.22;;;;;;;24.37;35.17;101882.38;5071022;28;20053;-77
2023/05/28 10:46:23;;;;;;;7.00;3.15;;;;;;;24.27;35.71;101887.53;5082119;28;20921;-78
2023/05/28 10:49:12;;;;;;;5.82;2.90;;;;;;;24.23;35.65;101881.53;5087129;28;20240;-77
2023/05/28 10:52:01;;;;;;;9.00;3.05;;;;;;;24.36;34.29;101881.50;5074607;28;20049;-78
2023/05/28 10:54:53;;;;;;;8.48;2.90;;;;;;;24.42;34.06;101885.59;5080020;28;20052;-77
2023/05/28 10:57:43;;;;;;;7.38;2.60;;;;;;;24.34;34.14;101875.38;5079444;28;20214;-77
2023/05/28 11:00:29;;;;;;;6.72;2.58;;;;;;;24.30;34.56;101881.94;5073332;28;20057;-76
2023/05/28 11:03:15;;;;;;;8.90;3.15;;;;;;;24.32;35.01;101880.00;5080750;28;20057;-77
2023/05/28 11:06:04;;;;;;;8.85;3.35;;;;;;;24.21;35.65;101880.78;5086048;28;20052;-77
2023/05/28 11:08:50;;;;;;;9.13;3.00;;;;;;;24.37;35.89;101877.81;5079062;28;20048;-76
2023/05/28 11:11:38;;;;;;;6.85;3.00;;;;;;;24.49;35.86;101878.78;5082288;28;20528;-75
2023/05/28 11:14:23;;;;;;;10.40;3.45;;;;;;;24.80;34.47;101884.63;5085982;28;21314;-75
2023/05/28 11:17:11;;;;;;;7.22;3.30;;;;;;;24.56;35.49;101885.44;5077095;28;20060;-76
2023/05/28 11:19:58;;;;;;;7.05;3.13;;;;;;;24.63;35.68;101885.84;5079724;28;20617;-75
2023/05/28 11:22:44;;;;;;;10.80;3.38;;;;;;;24.87;34.60;101883.19;5080492;28;20501;-77
2023/05/28 11:25:31;;;;;;;8.48;3.10;;;;;;;24.70;35.17;101875.50;5077331;28;20060;-77
2023/05/28 11:28:18;;;;;;;6.75;2.92;;;;;;;24.78;33.92;101871.25;5060579;28;20063;-76
2023/05/28 11:31:04;;;;;;;8.30;3.00;;;;;;;24.83;35.11;101878.13;5074543;28;20587;-73
2023/05/28 11:33:50;;;;;;;8.40;3.13;;;;;;;24.97;34.71;101875.28;5077348;28;20052;-74
2023/05/28 11:36:44;;;;;;;8.95;2.95;;;;;;;25.00;34.72;101869.63;5084735;28;20585;-75
2023/05/28 11:39:30;;;;;;;8.80;2.85;;;;;;;25.18;34.19;101870.06;5077500;28;20044;-78
2023/05/28 11:42:21;;;;;;;7.35;2.53;;;;;;;25.33;34.27;101859.94;5081686;28;20099;-76
2023/05/28 11:45:09;;;;;;;11.27;3.15;;;;;;;25.52;33.96;101861.22;5083584;28;20053;-76
2023/05/28 11:47:57;;;;;;;7.53;2.60;;;;;;;25.57;32.93;101864.44;5082161;28;20052;-77
2023/05/28 11:50:44;;;;;;;7.50;2.47;;;;;;;25.57;31.93;101864.44;5079567;28;20871;-77
2023/05/28 11:53:44;;;;;;;6.15;2.20;;;;;;;25.50;31.12;101866.75;5076605;28;20057;-77
2023/05/28 11:56:30;;;;;;;7.40;2.58;;;;;;;25.47;32.47;101867.00;5080901;28;20236;-76
2023/05/28 11:59:17;;;;;;;6.10;2.53;;;;;;;25.54;32.94;101861.97;5077468;28;20056;-77
2023/05/28 12:02:16;;;;;;;7.07;3.20;;;;;;;25.64;32.64;101857.56;5074329;28;20053;-75
2023/05/28 12:05:03;;;;;;;8.57;2.78;;;;;;;25.79;33.03;101865.47;5076554;28;20202;-78
2023/05/28 12:07:54;;;;;;;9.52;3.33;;;;;;;25.85;33.17;101864.97;5066218;28;20056;-76
2023/05/28 12:10:39;;;;;;;6.47;2.35;;;;;;;25.96;31.92;101867.66;5075043;28;20049;-75
2023/05/28 12:13:32;;;;;;;4.57;2.40;;;;;;;25.87;32.58;101873.81;5074105;28;20060;-76
2023/05/28 12:16:17;;;;;;;7.68;3.00;;;;;;;25.64;32.83;101872.94;5068646;28;20052;-78
2023/05/28 12:19:04;;;;;;;7.53;2.80;;;;;;;25.41;33.73;101864.78;5079082;28;20052;-78
2023/05/28 12:21:49;;;;;;;7.32;2.50;;;;;;;25.46;32.58;101870.66;5076824;28;20107;-76
2023/05/28 12:24:34;;;;;;;6.00;2.40;;;;;;;25.42;33.13;101867.34;5083814;28;20080;-76
2023/05/28 12:27:20;;;;;;;7.90;2.50;;;;;;;25.34;33.59;101864.34;5070175;28;20114;-74
2023/05/28 12:30:06;;;;;;;7.05;2.50;;;;;;;25.52;33.25;101872.03;5079261;28;20128;-75
2023/05/28 12:32:52;;;;;;;6.35;2.40;;;;;;;25.50;32.35;101863.19;5073819;28;20057;-76
2023/05/28 12:35:38;;;;;;;7.45;2.95;;;;;;;25.37;31.89;101864.13;5078599;28;20049;-77
2023/05/28 12:38:24;;;;;;;6.80;2.97;;;;;;;25.35;32.68;101866.09;5068887;28;20509;-75
2023/05/28 12:41:10;;;;;;;6.10;2.22;;;;;;;25.45;32.77;101868.94;5077132;28;20045;-75
2023/05/28 12:43:56;;;;;;;9.60;2.83;;;;;;;25.52;31.61;101867.50;5069100;28;20073;-79
2023/05/28 12:46:42;;;;;;;7.50;2.60;;;;;;;25.41;32.80;101865.63;5079233;28;20741;-76
2023/05/28 12:49:27;;;;;;;7.43;2.63;;;;;;;25.54;33.87;101859.28;5071191;28;20045;-79
2023/05/28 12:52:12;;;;;;;7.15;2.92;;;;;;;25.57;33.83;101859.03;5078998;28;20064;-80
2023/05/28 12:54:58;;;;;;;7.38;2.63;;;;;;;25.65;33.55;101863.81;5078671;28;20057;-76